sensor_id;sensor_type;location;lat;lon;timestamp;P1;durP1;ratioP1;P2;durP2;ratioP2
81221;SDS011;70691;52.492;13.420;2023-08-17T00:00:44;4.40;;;2.20;;
81221;SDS011;70691;52.492;13.420;2023-08-17T00:03:09;6.53;;;2.20;;
81221;SDS011;70691;52.492;13.420;2023-08-17T00:05:36;3.17;;;2.28;;
81221;SDS011;70691;52.492;13.420;2023-08-17T00:08:02;4.53;;;1.70;;
81221;SDS011;70691;52.492;13.420;2023-08-17T00:10:28;3.53;;;2.22;;
81221;SDS011;70691;52.492;13.420;2023-08-17T00:12:54;6.25;;;1.92;;
81221;SDS011;70691;52.492;13.420;2023-08-17T00:15:19;5.55;;;2.22;;
81221;SDS011;70691;52.492;13.420;2023-08-17T00:17:45;3.65;;;1.48;;
81221;SDS011;70691;52.492;13.420;2023-08-17T00:20:11;7.63;;;2.47;;
81221;SDS011;70691;52.492;13.420;2023-08-17T00:22:37;6.07;;;2.35;;
81221;SDS011;70691;52.492;13.420;2023-08-17T00:25:03;4.93;;;2.10;;
81221;SDS011;70691;52.492;13.420;2023-08-17T00:27:31;6.47;;;2.58;;
81221;SDS011;70691;52.492;13.420;2023-08-17T00:29:57;5.13;;;2.13;;
81221;SDS011;70691;52.492;13.420;2023-08-17T00:32:23;5.40;;;2.17;;
81221;SDS011;70691;52.492;13.420;2023-08-17T00:34:48;7.72;;;2.08;;
81221;SDS011;70691;52.492;13.420;2023-08-17T00:37:14;6.30;;;2.30;;
81221;SDS011;70691;52.492;13.420;2023-08-17T00:39:39;6.65;;;2.45;;
81221;SDS011;70691;52.492;13.420;2023-08-17T00:42:05;6.95;;;2.42;;
81221;SDS011;70691;52.492;13.420;2023-08-17T00:44:33;5.20;;;2.20;;
81221;SDS011;70691;52.492;13.420;2023-08-17T00:46:58;8.40;;;2.72;;
81221;SDS011;70691;52.492;13.420;2023-08-17T00:49:24;6.93;;;2.80;;
81221;SDS011;70691;52.492;13.420;2023-08-17T00:51:50;6.15;;;2.47;;
81221;SDS011;70691;52.492;13.420;2023-08-17T00:54:17;3.72;;;1.92;;
81221;SDS011;70691;52.492;13.420;2023-08-17T00:56:49;5.53;;;2.67;;
81221;SDS011;70691;52.492;13.420;2023-08-17T00:59:15;4.78;;;1.92;;
81221;SDS011;70691;52.492;13.420;2023-08-17T01:01:40;7.70;;;2.25;;
81221;SDS011;70691;52.492;13.420;2023-08-17T01:04:07;6.25;;;2.55;;
81221;SDS011;70691;52.492;13.420;2023-08-17T01:06:32;8.15;;;2.45;;
81221;SDS011;70691;52.492;13.420;2023-08-17T01:08:58;8.38;;;2.13;;
81221;SDS011;70691;52.492;13.420;2023-08-17T01:16:26;9.93;;;2.33;;
81221;SDS011;70691;52.492;13.420;2023-08-17T01:18:55;7.80;;;2.63;;
81221;SDS011;70691;52.492;13.420;2023-08-17T01:21:22;5.03;;;2.25;;
81221;SDS011;70691;52.492;13.420;2023-08-17T01:23:49;5.90;;;2.20;;
81221;SDS011;70691;52.492;13.420;2023-08-17T01:26:16;6.45;;;2.65;;
81221;SDS011;70691;52.492;13.420;2023-08-17T01:28:45;6.78;;;3.05;;
81221;SDS011;70691;52.492;13.420;2023-08-17T01:31:14;4.72;;;2.35;;
81221;SDS011;70691;52.492;13.420;2023-08-17T01:33:52;7.65;;;2.50;;
81221;SDS011;70691;52.492;13.420;2023-08-17T01:36:37;3.47;;;2.20;;
81221;SDS011;70691;52.492;13.420;2023-08-17T01:39:08;4.93;;;2.25;;
81221;SDS011;70691;52.492;13.420;2023-08-17T01:41:35;6.80;;;2.95;;
81221;SDS011;70691;52.492;13.420;2023-08-17T01:44:02;5.57;;;2.00;;
81221;SDS011;70691;52.492;13.420;2023-08-17T01:46:33;5.65;;;2.10;;
81221;SDS011;70691;52.492;13.420;2023-08-17T01:48:59;6.55;;;2.70;;
81221;SDS011;70691;52.492;13.420;2023-08-17T01:51:25;5.20;;;1.90;;
81221;SDS011;70691;52.492;13.420;2023-08-17T01:53:50;3.03;;;1.80;;
81221;SDS011;70691;52.492;13.420;2023-08-17T01:56:16;4.35;;;2.63;;
81221;SDS011;70691;52.492;13.420;2023-08-17T01:58:42;7.72;;;2.30;;
81221;SDS011;70691;52.492;13.420;2023-08-17T02:01:08;5.38;;;2.08;;
81221;SDS011;70691;52.492;13.420;2023-08-17T02:03:34;6.03;;;2.65;;
81221;SDS011;70691;52.492;13.420;2023-08-17T02:05:59;3.50;;;1.90;;
81221;SDS011;70691;52.492;13.420;2023-08-17T02:08:25;4.55;;;2.15;;
81221;SDS011;70691;52.492;13.420;2023-08-17T02:10:51;3.53;;;2.20;;
81221;SDS011;70691;52.492;13.420;2023-08-17T02:13:17;5.10;;;2.03;;
81221;SDS011;70691;52.492;13.420;2023-08-17T02:15:44;10.93;;;2.47;;
81221;SDS011;70691;52.492;13.420;2023-08-17T02:18:09;5.28;;;1.98;;
81221;SDS011;70691;52.492;13.420;2023-08-17T02:20:35;4.10;;;2.35;;
81221;SDS011;70691;52.492;13.420;2023-08-17T02:23:01;6.28;;;2.25;;
81221;SDS011;70691;52.492;13.420;2023-08-17T02:25:27;3.15;;;2.10;;
81221;SDS011;70691;52.492;13.420;2023-08-17T02:28:00;5.03;;;2.45;;
81221;SDS011;70691;52.492;13.420;2023-08-17T02:30:26;7.65;;;2.85;;
81221;SDS011;70691;52.492;13.420;2023-08-17T02:32:51;4.13;;;2.08;;
81221;SDS011;70691;52.492;13.420;2023-08-17T02:35:17;3.97;;;2.20;;
81221;SDS011;70691;52.492;13.420;2023-08-17T02:37:43;4.82;;;2.47;;
81221;SDS011;70691;52.492;13.420;2023-08-17T02:40:09;2.97;;;2.33;;
81221;SDS011;70691;52.492;13.420;2023-08-17T02:42:35;12.68;;;3.28;;
81221;SDS011;70691;52.492;13.420;2023-08-17T02:45:00;6.82;;;2.67;;
81221;SDS011;70691;52.492;13.420;2023-08-17T02:47:26;5.22;;;2.53;;
81221;SDS011;70691;52.492;13.420;2023-08-17T02:49:52;6.30;;;2.60;;
81221;SDS011;70691;52.492;13.420;2023-08-17T02:52:17;4.30;;;2.08;;
81221;SDS011;70691;52.492;13.420;2023-08-17T02:54:43;5.00;;;2.53;;
81221;SDS011;70691;52.492;13.420;2023-08-17T02:57:09;5.15;;;2.30;;
81221;SDS011;70691;52.492;13.420;2023-08-17T02:59:34;4.53;;;2.70;;
81221;SDS011;70691;52.492;13.420;2023-08-17T03:02:00;3.63;;;2.20;;
81221;SDS011;70691;52.492;13.420;2023-08-17T03:04:26;4.65;;;2.33;;
81221;SDS011;70691;52.492;13.420;2023-08-17T03:06:51;5.10;;;1.98;;
81221;SDS011;70691;52.492;13.420;2023-08-17T03:09:17;5.18;;;2.17;;
81221;SDS011;70691;52.492;13.420;2023-08-17T03:11:43;3.10;;;1.92;;
81221;SDS011;70691;52.492;13.420;2023-08-17T03:14:09;6.22;;;2.60;;
81221;SDS011;70691;52.492;13.420;2023-08-17T03:16:34;6.40;;;2.30;;
81221;SDS011;70691;52.492;13.420;2023-08-17T03:19:00;7.18;;;2.20;;
81221;SDS011;70691;52.492;13.420;2023-08-17T03:21:26;4.80;;;2.40;;
81221;SDS011;70691;52.492;13.420;2023-08-17T03:23:51;6.13;;;2.20;;
81221;SDS011;70691;52.492;13.420;2023-08-17T03:26:18;3.83;;;2.28;;
81221;SDS011;70691;52.492;13.420;2023-08-17T03:28:44;4.40;;;2.28;;
81221;SDS011;70691;52.492;13.420;2023-08-17T03:31:10;5.10;;;2.40;;
81221;SDS011;70691;52.492;13.420;2023-08-17T03:33:36;5.63;;;2.30;;
81221;SDS011;70691;52.492;13.420;2023-08-17T03:36:02;4.50;;;2.25;;
81221;SDS011;70691;52.492;13.420;2023-08-17T03:38:28;4.38;;;2.30;;
81221;SDS011;70691;52.492;13.420;2023-08-17T03:40:54;4.35;;;2.30;;
81221;SDS011;70691;52.492;13.420;2023-08-17T03:43:20;3.10;;;2.05;;
81221;SDS011;70691;52.492;13.420;2023-08-17T03:45:45;9.20;;;2.40;;
81221;SDS011;70691;52.492;13.420;2023-08-17T03:48:11;5.03;;;2.35;;
81221;SDS011;70691;52.492;13.420;2023-08-17T03:50:37;5.93;;;2.00;;
81221;SDS011;70691;52.492;13.420;2023-08-17T03:53:03;4.32;;;1.92;;
81221;SDS011;70691;52.492;13.420;2023-08-17T03:55:29;4.38;;;2.28;;
81221;SDS011;70691;52.492;13.420;2023-08-17T03:57:54;5.00;;;2.28;;
81221;SDS011;70691;52.492;13.420;2023-08-17T04:00:20;5.88;;;1.95;;
81221;SDS011;70691;52.492;13.420;2023-08-17T04:02:46;7.15;;;2.33;;
81221;SDS011;70691;52.492;13.420;2023-08-17T04:05:12;3.20;;;1.75;;
81221;SDS011;70691;52.492;13.420;2023-08-17T04:07:38;2.85;;;1.95;;
81221;SDS011;70691;52.492;13.420;2023-08-17T04:10:07;8.70;;;1.95;;
81221;SDS011;70691;52.492;13.420;2023-08-17T04:12:33;6.00;;;2.22;;
81221;SDS011;70691;52.492;13.420;2023-08-17T04:14:59;5.53;;;1.88;;
81221;SDS011;70691;52.492;13.420;2023-08-17T04:17:25;3.60;;;1.55;;
81221;SDS011;70691;52.492;13.420;2023-08-17T04:19:51;5.50;;;1.90;;
81221;SDS011;70691;52.492;13.420;2023-08-17T04:22:17;4.72;;;2.13;;
81221;SDS011;70691;52.492;13.420;2023-08-17T04:24:42;3.97;;;1.80;;
81221;SDS011;70691;52.492;13.420;2023-08-17T04:27:08;4.22;;;2.03;;
81221;SDS011;70691;52.492;13.420;2023-08-17T04:29:34;5.80;;;2.03;;
81221;SDS011;70691;52.492;13.420;2023-08-17T04:31:59;4.38;;;1.80;;
81221;SDS011;70691;52.492;13.420;2023-08-17T04:34:25;8.60;;;2.13;;
81221;SDS011;70691;52.492;13.420;2023-08-17T04:36:51;5.03;;;2.10;;
81221;SDS011;70691;52.492;13.420;2023-08-17T04:39:16;4.32;;;1.70;;
81221;SDS011;70691;52.492;13.420;2023-08-17T04:41:42;3.92;;;2.17;;
81221;SDS011;70691;52.492;13.420;2023-08-17T04:44:08;5.70;;;1.73;;
81221;SDS011;70691;52.492;13.420;2023-08-17T04:46:34;6.13;;;2.85;;
81221;SDS011;70691;52.492;13.420;2023-08-17T04:49:00;5.82;;;2.03;;
81221;SDS011;70691;52.492;13.420;2023-08-17T04:51:26;4.53;;;1.60;;
81221;SDS011;70691;52.492;13.420;2023-08-17T04:53:52;3.30;;;2.05;;
81221;SDS011;70691;52.492;13.420;2023-08-17T04:56:18;5.00;;;2.00;;
81221;SDS011;70691;52.492;13.420;2023-08-17T04:58:43;3.97;;;2.00;;
81221;SDS011;70691;52.492;13.420;2023-08-17T05:01:09;4.95;;;1.60;;
81221;SDS011;70691;52.492;13.420;2023-08-17T05:03:35;4.60;;;1.88;;
81221;SDS011;70691;52.492;13.420;2023-08-17T05:06:01;6.25;;;2.00;;
81221;SDS011;70691;52.492;13.420;2023-08-17T05:08:26;4.20;;;1.60;;
81221;SDS011;70691;52.492;13.420;2023-08-17T05:10:52;4.72;;;2.08;;
81221;SDS011;70691;52.492;13.420;2023-08-17T05:13:18;3.88;;;1.52;;
81221;SDS011;70691;52.492;13.420;2023-08-17T05:15:44;2.03;;;1.50;;
81221;SDS011;70691;52.492;13.420;2023-08-17T05:18:10;4.93;;;1.85;;
81221;SDS011;70691;52.492;13.420;2023-08-17T05:20:35;3.75;;;1.50;;
81221;SDS011;70691;52.492;13.420;2023-08-17T05:23:01;3.75;;;1.80;;
81221;SDS011;70691;52.492;13.420;2023-08-17T05:25:27;5.05;;;2.00;;
81221;SDS011;70691;52.492;13.420;2023-08-17T05:27:54;4.38;;;1.60;;
81221;SDS011;70691;52.492;13.420;2023-08-17T05:30:20;4.25;;;1.73;;
81221;SDS011;70691;52.492;13.420;2023-08-17T05:32:46;1.95;;;1.55;;
81221;SDS011;70691;52.492;13.420;2023-08-17T05:35:12;4.78;;;2.08;;
81221;SDS011;70691;52.492;13.420;2023-08-17T05:37:37;1.83;;;1.10;;
81221;SDS011;70691;52.492;13.420;2023-08-17T05:40:03;5.18;;;1.77;;
81221;SDS011;70691;52.492;13.420;2023-08-17T05:42:30;5.22;;;2.30;;
81221;SDS011;70691;52.492;13.420;2023-08-17T05:44:55;3.13;;;1.60;;
81221;SDS011;70691;52.492;13.420;2023-08-17T05:47:21;4.47;;;1.63;;
81221;SDS011;70691;52.492;13.420;2023-08-17T05:49:46;4.53;;;1.58;;
81221;SDS011;70691;52.492;13.420;2023-08-17T05:52:12;3.75;;;1.83;;
81221;SDS011;70691;52.492;13.420;2023-08-17T05:54:38;6.13;;;1.90;;
81221;SDS011;70691;52.492;13.420;2023-08-17T05:57:04;3.40;;;1.70;;
81221;SDS011;70691;52.492;13.420;2023-08-17T05:59:30;2.70;;;1.58;;
81221;SDS011;70691;52.492;13.420;2023-08-17T06:01:55;5.47;;;1.50;;
81221;SDS011;70691;52.492;13.420;2023-08-17T06:04:21;2.03;;;1.52;;
81221;SDS011;70691;52.492;13.420;2023-08-17T06:06:47;4.75;;;1.75;;
81221;SDS011;70691;52.492;13.420;2023-08-17T06:09:12;3.45;;;1.35;;
81221;SDS011;70691;52.492;13.420;2023-08-17T06:11:39;5.07;;;1.60;;
81221;SDS011;70691;52.492;13.420;2023-08-17T06:14:05;4.43;;;1.70;;
81221;SDS011;70691;52.492;13.420;2023-08-17T06:16:31;6.70;;;1.63;;
81221;SDS011;70691;52.492;13.420;2023-08-17T06:18:56;3.63;;;2.30;;
81221;SDS011;70691;52.492;13.420;2023-08-17T06:21:22;4.53;;;2.35;;
81221;SDS011;70691;52.492;13.420;2023-08-17T06:23:48;4.05;;;1.77;;
81221;SDS011;70691;52.492;13.420;2023-08-17T06:26:13;6.32;;;2.38;;
81221;SDS011;70691;52.492;13.420;2023-08-17T06:28:39;8.23;;;1.52;;
81221;SDS011;70691;52.492;13.420;2023-08-17T06:31:05;9.43;;;3.08;;
81221;SDS011;70691;52.492;13.420;2023-08-17T06:33:30;6.40;;;2.10;;
81221;SDS011;70691;52.492;13.420;2023-08-17T06:35:56;4.63;;;1.50;;
81221;SDS011;70691;52.492;13.420;2023-08-17T06:38:22;5.88;;;1.88;;
81221;SDS011;70691;52.492;13.420;2023-08-17T06:40:47;2.47;;;1.73;;
81221;SDS011;70691;52.492;13.420;2023-08-17T06:43:13;3.95;;;1.80;;
81221;SDS011;70691;52.492;13.420;2023-08-17T06:45:39;5.00;;;1.45;;
81221;SDS011;70691;52.492;13.420;2023-08-17T06:48:04;3.40;;;1.88;;
81221;SDS011;70691;52.492;13.420;2023-08-17T06:50:30;4.53;;;2.20;;
81221;SDS011;70691;52.492;13.420;2023-08-17T06:52:56;3.80;;;1.73;;
81221;SDS011;70691;52.492;13.420;2023-08-17T06:55:22;6.57;;;1.98;;
81221;SDS011;70691;52.492;13.420;2023-08-17T06:57:47;4.05;;;2.40;;
81221;SDS011;70691;52.492;13.420;2023-08-17T07:00:17;7.72;;;3.33;;
81221;SDS011;70691;52.492;13.420;2023-08-17T07:02:45;4.68;;;2.42;;
81221;SDS011;70691;52.492;13.420;2023-08-17T07:05:15;7.47;;;2.65;;
81221;SDS011;70691;52.492;13.420;2023-08-17T07:07:41;5.70;;;2.22;;
81221;SDS011;70691;52.492;13.420;2023-08-17T07:10:07;5.72;;;2.08;;
81221;SDS011;70691;52.492;13.420;2023-08-17T07:12:34;3.33;;;1.85;;
81221;SDS011;70691;52.492;13.420;2023-08-17T07:14:59;4.90;;;2.00;;
81221;SDS011;70691;52.492;13.420;2023-08-17T07:17:25;5.53;;;1.75;;
81221;SDS011;70691;52.492;13.420;2023-08-17T07:19:51;4.15;;;2.10;;
81221;SDS011;70691;52.492;13.420;2023-08-17T07:22:16;3.30;;;2.15;;
81221;SDS011;70691;52.492;13.420;2023-08-17T07:24:42;5.90;;;2.28;;
81221;SDS011;70691;52.492;13.420;2023-08-17T07:27:08;4.88;;;2.30;;
81221;SDS011;70691;52.492;13.420;2023-08-17T07:29:33;8.90;;;3.33;;
81221;SDS011;70691;52.492;13.420;2023-08-17T07:31:59;3.75;;;2.72;;
81221;SDS011;70691;52.492;13.420;2023-08-17T07:34:27;6.32;;;2.58;;
81221;SDS011;70691;52.492;13.420;2023-08-17T07:36:53;3.38;;;2.22;;
81221;SDS011;70691;52.492;13.420;2023-08-17T07:39:19;11.13;;;1.92;;
81221;SDS011;70691;52.492;13.420;2023-08-17T07:41:44;5.78;;;2.33;;
81221;SDS011;70691;52.492;13.420;2023-08-17T07:44:10;8.30;;;2.10;;
81221;SDS011;70691;52.492;13.420;2023-08-17T07:46:36;5.40;;;2.10;;
81221;SDS011;70691;52.492;13.420;2023-08-17T07:49:02;5.97;;;2.53;;
81221;SDS011;70691;52.492;13.420;2023-08-17T07:51:28;10.10;;;2.80;;
81221;SDS011;70691;52.492;13.420;2023-08-17T07:53:56;4.80;;;2.30;;
81221;SDS011;70691;52.492;13.420;2023-08-17T07:56:22;4.72;;;2.67;;
81221;SDS011;70691;52.492;13.420;2023-08-17T07:58:47;6.60;;;2.83;;
81221;SDS011;70691;52.492;13.420;2023-08-17T08:01:13;5.35;;;2.83;;
81221;SDS011;70691;52.492;13.420;2023-08-17T08:03:39;7.15;;;2.30;;
81221;SDS011;70691;52.492;13.420;2023-08-17T08:06:05;5.40;;;2.25;;
81221;SDS011;70691;52.492;13.420;2023-08-17T08:08:30;4.68;;;2.00;;
81221;SDS011;70691;52.492;13.420;2023-08-17T08:10:56;2.90;;;2.20;;
81221;SDS011;70691;52.492;13.420;2023-08-17T08:13:23;3.65;;;2.45;;
81221;SDS011;70691;52.492;13.420;2023-08-17T08:15:49;3.85;;;1.73;;
81221;SDS011;70691;52.492;13.420;2023-08-17T08:18:15;6.03;;;2.22;;
81221;SDS011;70691;52.492;13.420;2023-08-17T08:20:40;6.80;;;2.25;;
81221;SDS011;70691;52.492;13.420;2023-08-17T08:23:06;5.28;;;2.15;;
81221;SDS011;70691;52.492;13.420;2023-08-17T08:25:31;4.97;;;2.25;;
81221;SDS011;70691;52.492;13.420;2023-08-17T08:27:57;5.13;;;2.17;;
81221;SDS011;70691;52.492;13.420;2023-08-17T08:30:23;3.65;;;2.10;;
81221;SDS011;70691;52.492;13.420;2023-08-17T08:32:49;3.53;;;2.38;;
81221;SDS011;70691;52.492;13.420;2023-08-17T08:35:16;5.47;;;2.33;;
81221;SDS011;70691;52.492;13.420;2023-08-17T08:37:42;6.97;;;3.22;;
81221;SDS011;70691;52.492;13.420;2023-08-17T08:40:10;4.65;;;2.50;;
81221;SDS011;70691;52.492;13.420;2023-08-17T08:42:38;6.93;;;2.47;;
81221;SDS011;70691;52.492;13.420;2023-08-17T08:45:04;7.20;;;2.15;;
81221;SDS011;70691;52.492;13.420;2023-08-17T08:47:30;6.20;;;2.70;;
81221;SDS011;70691;52.492;13.420;2023-08-17T08:49:59;6.30;;;2.88;;
81221;SDS011;70691;52.492;13.420;2023-08-17T08:52:35;8.15;;;2.75;;
81221;SDS011;70691;52.492;13.420;2023-08-17T08:57:37;5.60;;;2.70;;
81221;SDS011;70691;52.492;13.420;2023-08-17T09:00:04;5.38;;;2.83;;
81221;SDS011;70691;52.492;13.420;2023-08-17T09:02:31;4.30;;;2.83;;
81221;SDS011;70691;52.492;13.420;2023-08-17T09:04:58;6.03;;;2.95;;
81221;SDS011;70691;52.492;13.420;2023-08-17T09:07:25;4.13;;;2.88;;
81221;SDS011;70691;52.492;13.420;2023-08-17T09:09:53;7.20;;;3.08;;
81221;SDS011;70691;52.492;13.420;2023-08-17T09:12:21;7.97;;;3.30;;
81221;SDS011;70691;52.492;13.420;2023-08-17T09:14:47;5.50;;;3.47;;
81221;SDS011;70691;52.492;13.420;2023-08-17T09:17:13;5.63;;;3.08;;
81221;SDS011;70691;52.492;13.420;2023-08-17T09:19:38;5.72;;;3.13;;
81221;SDS011;70691;52.492;13.420;2023-08-17T09:22:04;9.45;;;3.22;;
81221;SDS011;70691;52.492;13.420;2023-08-17T09:24:33;6.70;;;2.90;;
81221;SDS011;70691;52.492;13.420;2023-08-17T09:27:03;8.85;;;2.78;;
81221;SDS011;70691;52.492;13.420;2023-08-17T09:29:29;4.95;;;2.92;;
81221;SDS011;70691;52.492;13.420;2023-08-17T09:32:05;7.80;;;2.65;;
81221;SDS011;70691;52.492;13.420;2023-08-17T09:34:31;6.35;;;2.63;;
81221;SDS011;70691;52.492;13.420;2023-08-17T09:37:02;5.13;;;2.80;;
81221;SDS011;70691;52.492;13.420;2023-08-17T09:39:29;3.92;;;2.22;;
81221;SDS011;70691;52.492;13.420;2023-08-17T09:41:55;8.23;;;2.92;;
81221;SDS011;70691;52.492;13.420;2023-08-17T09:44:20;9.48;;;3.55;;
81221;SDS011;70691;52.492;13.420;2023-08-17T09:46:47;7.88;;;2.85;;
81221;SDS011;70691;52.492;13.420;2023-08-17T09:49:13;7.45;;;2.63;;
81221;SDS011;70691;52.492;13.420;2023-08-17T09:51:44;4.95;;;2.75;;
81221;SDS011;70691;52.492;13.420;2023-08-17T09:54:22;6.03;;;2.47;;
81221;SDS011;70691;52.492;13.420;2023-08-17T09:56:51;8.13;;;3.00;;
81221;SDS011;70691;52.492;13.420;2023-08-17T09:59:18;3.95;;;2.75;;
81221;SDS011;70691;52.492;13.420;2023-08-17T10:01:47;4.00;;;2.42;;
81221;SDS011;70691;52.492;13.420;2023-08-17T10:04:13;3.92;;;2.10;;
81221;SDS011;70691;52.492;13.420;2023-08-17T10:06:45;3.78;;;2.38;;
81221;SDS011;70691;52.492;13.420;2023-08-17T10:09:13;4.00;;;2.60;;
81221;SDS011;70691;52.492;13.420;2023-08-17T10:14:13;10.20;;;2.60;;
81221;SDS011;70691;52.492;13.420;2023-08-17T10:16:49;5.25;;;2.58;;
81221;SDS011;70691;52.492;13.420;2023-08-17T10:22:19;8.77;;;3.05;;
81221;SDS011;70691;52.492;13.420;2023-08-17T10:25:08;7.00;;;3.50;;
81221;SDS011;70691;52.492;13.420;2023-08-17T10:27:36;8.88;;;2.90;;
81221;SDS011;70691;52.492;13.420;2023-08-17T10:30:02;6.15;;;2.97;;
81221;SDS011;70691;52.492;13.420;2023-08-17T10:32:29;6.40;;;3.08;;
81221;SDS011;70691;52.492;13.420;2023-08-17T10:34:55;6.43;;;3.15;;
81221;SDS011;70691;52.492;13.420;2023-08-17T10:37:22;5.60;;;3.00;;
81221;SDS011;70691;52.492;13.420;2023-08-17T10:39:49;4.82;;;3.33;;
81221;SDS011;70691;52.492;13.420;2023-08-17T10:42:33;4.35;;;2.70;;
81221;SDS011;70691;52.492;13.420;2023-08-17T10:47:29;6.65;;;4.10;;
81221;SDS011;70691;52.492;13.420;2023-08-17T10:49:57;4.10;;;2.90;;
81221;SDS011;70691;52.492;13.420;2023-08-17T10:52:30;6.25;;;3.00;;
81221;SDS011;70691;52.492;13.420;2023-08-17T10:55:04;7.88;;;3.47;;
81221;SDS011;70691;52.492;13.420;2023-08-17T11:02:33;7.40;;;3.58;;
81221;SDS011;70691;52.492;13.420;2023-08-17T11:05:00;5.45;;;3.25;;
81221;SDS011;70691;52.492;13.420;2023-08-17T11:07:26;4.75;;;3.60;;
81221;SDS011;70691;52.492;13.420;2023-08-17T11:10:08;7.60;;;3.33;;
81221;SDS011;70691;52.492;13.420;2023-08-17T11:13:03;4.78;;;3.25;;
81221;SDS011;70691;52.492;13.420;2023-08-17T11:18:07;4.90;;;3.35;;
81221;SDS011;70691;52.492;13.420;2023-08-17T11:20:34;6.80;;;3.28;;
81221;SDS011;70691;52.492;13.420;2023-08-17T11:23:04;4.78;;;2.78;;
81221;SDS011;70691;52.492;13.420;2023-08-17T11:25:31;5.43;;;3.60;;
81221;SDS011;70691;52.492;13.420;2023-08-17T11:27:57;7.82;;;3.65;;
81221;SDS011;70691;52.492;13.420;2023-08-17T11:30:25;4.20;;;3.75;;
81221;SDS011;70691;52.492;13.420;2023-08-17T11:32:53;7.03;;;3.85;;
81221;SDS011;70691;52.492;13.420;2023-08-17T11:35:19;6.43;;;3.55;;
81221;SDS011;70691;52.492;13.420;2023-08-17T11:37:46;5.80;;;3.85;;
81221;SDS011;70691;52.492;13.420;2023-08-17T11:40:16;4.28;;;3.42;;
81221;SDS011;70691;52.492;13.420;2023-08-17T11:42:42;6.00;;;3.55;;
81221;SDS011;70691;52.492;13.420;2023-08-17T11:45:09;10.10;;;4.60;;
81221;SDS011;70691;52.492;13.420;2023-08-17T11:47:35;7.55;;;4.47;;
81221;SDS011;70691;52.492;13.420;2023-08-17T11:50:03;4.78;;;3.00;;
81221;SDS011;70691;52.492;13.420;2023-08-17T11:52:30;6.68;;;3.33;;
81221;SDS011;70691;52.492;13.420;2023-08-17T11:55:01;6.88;;;3.13;;
81221;SDS011;70691;52.492;13.420;2023-08-17T11:57:27;4.78;;;3.75;;
81221;SDS011;70691;52.492;13.420;2023-08-17T11:59:54;4.10;;;3.08;;
81221;SDS011;70691;52.492;13.420;2023-08-17T12:02:23;4.68;;;3.28;;
81221;SDS011;70691;52.492;13.420;2023-08-17T12:04:49;4.30;;;3.20;;
81221;SDS011;70691;52.492;13.420;2023-08-17T12:07:16;5.22;;;3.08;;
81221;SDS011;70691;52.492;13.420;2023-08-17T12:09:45;6.07;;;3.17;;
81221;SDS011;70691;52.492;13.420;2023-08-17T12:12:11;7.28;;;3.70;;
81221;SDS011;70691;52.492;13.420;2023-08-17T12:14:40;4.63;;;3.47;;
81221;SDS011;70691;52.492;13.420;2023-08-17T12:17:10;3.88;;;3.40;;
81221;SDS011;70691;52.492;13.420;2023-08-17T12:19:49;8.40;;;4.05;;
81221;SDS011;70691;52.492;13.420;2023-08-17T12:24:42;6.95;;;4.25;;
81221;SDS011;70691;52.492;13.420;2023-08-17T12:27:09;4.95;;;3.40;;
81221;SDS011;70691;52.492;13.420;2023-08-17T12:29:45;6.32;;;3.65;;
81221;SDS011;70691;52.492;13.420;2023-08-17T12:32:17;4.50;;;3.35;;
81221;SDS011;70691;52.492;13.420;2023-08-17T12:34:44;6.53;;;4.13;;
81221;SDS011;70691;52.492;13.420;2023-08-17T12:37:10;7.35;;;3.33;;
81221;SDS011;70691;52.492;13.420;2023-08-17T12:39:37;6.95;;;3.17;;
81221;SDS011;70691;52.492;13.420;2023-08-17T12:42:04;4.50;;;3.58;;
81221;SDS011;70691;52.492;13.420;2023-08-17T12:44:30;5.55;;;3.88;;
81221;SDS011;70691;52.492;13.420;2023-08-17T12:46:56;7.15;;;3.70;;
81221;SDS011;70691;52.492;13.420;2023-08-17T12:49:22;7.50;;;4.25;;
81221;SDS011;70691;52.492;13.420;2023-08-17T12:51:49;5.18;;;3.70;;
81221;SDS011;70691;52.492;13.420;2023-08-17T12:54:15;4.78;;;4.03;;
81221;SDS011;70691;52.492;13.420;2023-08-17T12:56:40;6.32;;;3.90;;
81221;SDS011;70691;52.492;13.420;2023-08-17T12:59:06;8.38;;;4.15;;
81221;SDS011;70691;52.492;13.420;2023-08-17T13:01:32;4.25;;;3.50;;
81221;SDS011;70691;52.492;13.420;2023-08-17T13:03:58;3.85;;;3.45;;
81221;SDS011;70691;52.492;13.420;2023-08-17T13:06:24;5.03;;;4.10;;
81221;SDS011;70691;52.492;13.420;2023-08-17T13:08:50;6.32;;;4.20;;
81221;SDS011;70691;52.492;13.420;2023-08-17T13:11:15;6.78;;;3.70;;
81221;SDS011;70691;52.492;13.420;2023-08-17T13:13:41;5.97;;;3.88;;
81221;SDS011;70691;52.492;13.420;2023-08-17T13:16:07;5.40;;;3.95;;
81221;SDS011;70691;52.492;13.420;2023-08-17T13:21:02;4.18;;;3.25;;
81221;SDS011;70691;52.492;13.420;2023-08-17T13:23:28;6.93;;;5.13;;
81221;SDS011;70691;52.492;13.420;2023-08-17T13:25:54;5.85;;;4.50;;
81221;SDS011;70691;52.492;13.420;2023-08-17T13:28:20;4.68;;;3.83;;
81221;SDS011;70691;52.492;13.420;2023-08-17T13:30:46;9.02;;;4.72;;
81221;SDS011;70691;52.492;13.420;2023-08-17T13:33:11;4.40;;;4.00;;
81221;SDS011;70691;52.492;13.420;2023-08-17T13:35:37;5.90;;;4.32;;
81221;SDS011;70691;52.492;13.420;2023-08-17T13:38:03;7.72;;;4.68;;
81221;SDS011;70691;52.492;13.420;2023-08-17T13:40:30;6.18;;;4.00;;
81221;SDS011;70691;52.492;13.420;2023-08-17T13:42:56;5.75;;;3.90;;
81221;SDS011;70691;52.492;13.420;2023-08-17T13:45:23;5.72;;;4.05;;
81221;SDS011;70691;52.492;13.420;2023-08-17T13:47:49;5.40;;;4.50;;
81221;SDS011;70691;52.492;13.420;2023-08-17T13:50:15;6.85;;;3.72;;
81221;SDS011;70691;52.492;13.420;2023-08-17T13:52:41;6.50;;;4.10;;
81221;SDS011;70691;52.492;13.420;2023-08-17T13:55:06;6.88;;;4.20;;
81221;SDS011;70691;52.492;13.420;2023-08-17T13:57:32;5.35;;;3.95;;
81221;SDS011;70691;52.492;13.420;2023-08-17T13:59:58;6.88;;;4.85;;
81221;SDS011;70691;52.492;13.420;2023-08-17T14:02:24;6.22;;;4.05;;
81221;SDS011;70691;52.492;13.420;2023-08-17T14:04:49;5.60;;;4.10;;
81221;SDS011;70691;52.492;13.420;2023-08-17T14:07:15;4.57;;;4.07;;
81221;SDS011;70691;52.492;13.420;2023-08-17T14:09:41;5.30;;;3.88;;
81221;SDS011;70691;52.492;13.420;2023-08-17T14:12:07;7.13;;;4.80;;
81221;SDS011;70691;52.492;13.420;2023-08-17T14:14:33;5.30;;;3.80;;
81221;SDS011;70691;52.492;13.420;2023-08-17T14:16:59;5.75;;;3.90;;
81221;SDS011;70691;52.492;13.420;2023-08-17T14:19:26;6.53;;;4.22;;
81221;SDS011;70691;52.492;13.420;2023-08-17T14:21:51;6.18;;;4.20;;
81221;SDS011;70691;52.492;13.420;2023-08-17T14:24:17;8.80;;;4.35;;
81221;SDS011;70691;52.492;13.420;2023-08-17T14:26:43;6.95;;;3.83;;
81221;SDS011;70691;52.492;13.420;2023-08-17T14:29:09;5.15;;;3.65;;
81221;SDS011;70691;52.492;13.420;2023-08-17T14:31:34;4.93;;;3.60;;
81221;SDS011;70691;52.492;13.420;2023-08-17T14:34:00;4.55;;;3.38;;
81221;SDS011;70691;52.492;13.420;2023-08-17T14:36:26;4.93;;;4.20;;
81221;SDS011;70691;52.492;13.420;2023-08-17T14:38:51;3.85;;;3.30;;
81221;SDS011;70691;52.492;13.420;2023-08-17T14:41:17;6.43;;;3.33;;
81221;SDS011;70691;52.492;13.420;2023-08-17T14:43:43;3.67;;;2.97;;
81221;SDS011;70691;52.492;13.420;2023-08-17T14:46:08;5.80;;;3.78;;
81221;SDS011;70691;52.492;13.420;2023-08-17T14:48:34;4.95;;;3.90;;
81221;SDS011;70691;52.492;13.420;2023-08-17T14:51:00;4.45;;;3.65;;
81221;SDS011;70691;52.492;13.420;2023-08-17T14:53:26;4.97;;;3.25;;
81221;SDS011;70691;52.492;13.420;2023-08-17T14:55:51;5.20;;;3.75;;
81221;SDS011;70691;52.492;13.420;2023-08-17T14:58:17;5.88;;;3.67;;